sensor_id;sensor_type;location;lat;lon;timestamp;P1;durP1;ratioP1;P2;durP2;ratioP2
40198;SDS011;25906;43.536;26.068;2023-06-14T00:01:13;6.13;;;4.38;;
40198;SDS011;25906;43.536;26.068;2023-06-14T00:03:59;11.02;;;5.07;;
40198;SDS011;25906;43.536;26.068;2023-06-14T00:06:44;7.28;;;4.90;;
40198;SDS011;25906;43.536;26.068;2023-06-14T00:09:30;7.57;;;4.13;;
40198;SDS011;25906;43.536;26.068;2023-06-14T00:12:15;5.72;;;4.20;;
40198;SDS011;25906;43.536;26.068;2023-06-14T00:15:00;9.18;;;4.60;;
40198;SDS011;25906;43.536;26.068;2023-06-14T00:17:46;8.35;;;4.13;;
40198;SDS011;25906;43.536;26.068;2023-06-14T00:20:32;4.22;;;3.80;;
40198;SDS011;25906;43.536;26.068;2023-06-14T00:23:18;5.60;;;4.35;;
40198;SDS011;25906;43.536;26.068;2023-06-14T00:26:04;4.95;;;4.40;;
40198;SDS011;25906;43.536;26.068;2023-06-14T00:28:49;5.85;;;4.25;;
40198;SDS011;25906;43.536;26.068;2023-06-14T00:31:35;7.22;;;4.78;;
40198;SDS011;25906;43.536;26.068;2023-06-14T00:34:20;5.70;;;4.35;;
40198;SDS011;25906;43.536;26.068;2023-06-14T00:37:06;8.73;;;4.90;;
40198;SDS011;25906;43.536;26.068;2023-06-14T00:39:51;6.32;;;4.38;;
40198;SDS011;25906;43.536;26.068;2023-06-14T00:42:37;9.15;;;4.80;;
40198;SDS011;25906;43.536;26.068;2023-06-14T00:45:22;6.65;;;4.57;;
40198;SDS011;25906;43.536;26.068;2023-06-14T00:48:07;5.70;;;4.80;;
40198;SDS011;25906;43.536;26.068;2023-06-14T00:50:54;5.40;;;4.60;;
40198;SDS011;25906;43.536;26.068;2023-06-14T00:53:40;5.38;;;4.68;;
40198;SDS011;25906;43.536;26.068;2023-06-14T00:56:31;12.88;;;4.95;;
40198;SDS011;25906;43.536;26.068;2023-06-14T00:59:16;6.32;;;4.72;;
40198;SDS011;25906;43.536;26.068;2023-06-14T01:02:02;6.07;;;4.57;;
40198;SDS011;25906;43.536;26.068;2023-06-14T01:04:47;5.68;;;4.80;;
40198;SDS011;25906;43.536;26.068;2023-06-14T01:13:46;6.55;;;4.97;;
40198;SDS011;25906;43.536;26.068;2023-06-14T01:16:33;6.80;;;5.60;;
40198;SDS011;25906;43.536;26.068;2023-06-14T01:19:21;6.45;;;5.20;;
40198;SDS011;25906;43.536;26.068;2023-06-14T01:22:10;7.15;;;4.90;;
40198;SDS011;25906;43.536;26.068;2023-06-14T01:27:43;5.05;;;4.40;;
40198;SDS011;25906;43.536;26.068;2023-06-14T01:30:28;8.25;;;4.93;;
40198;SDS011;25906;43.536;26.068;2023-06-14T01:33:16;5.40;;;4.63;;
40198;SDS011;25906;43.536;26.068;2023-06-14T01:36:04;6.53;;;4.57;;
40198;SDS011;25906;43.536;26.068;2023-06-14T01:38:51;6.78;;;5.25;;
40198;SDS011;25906;43.536;26.068;2023-06-14T01:41:37;6.88;;;5.63;;
40198;SDS011;25906;43.536;26.068;2023-06-14T01:44:24;6.22;;;5.10;;
40198;SDS011;25906;43.536;26.068;2023-06-14T01:49:56;5.30;;;4.78;;
40198;SDS011;25906;43.536;26.068;2023-06-14T01:52:42;6.93;;;5.07;;
40198;SDS011;25906;43.536;26.068;2023-06-14T01:55:27;7.85;;;5.13;;
40198;SDS011;25906;43.536;26.068;2023-06-14T01:58:13;6.95;;;4.88;;
40198;SDS011;25906;43.536;26.068;2023-06-14T02:00:58;6.40;;;5.15;;
40198;SDS011;25906;43.536;26.068;2023-06-14T02:03:45;7.60;;;5.00;;
40198;SDS011;25906;43.536;26.068;2023-06-14T02:09:17;11.85;;;5.75;;
40198;SDS011;25906;43.536;26.068;2023-06-14T02:12:02;6.78;;;5.63;;
40198;SDS011;25906;43.536;26.068;2023-06-14T02:14:48;9.35;;;5.60;;
40198;SDS011;25906;43.536;26.068;2023-06-14T02:20:19;12.65;;;5.93;;
40198;SDS011;25906;43.536;26.068;2023-06-14T02:23:05;7.85;;;5.32;;
40198;SDS011;25906;43.536;26.068;2023-06-14T02:25:53;6.88;;;5.78;;
40198;SDS011;25906;43.536;26.068;2023-06-14T02:28:38;6.97;;;5.72;;
40198;SDS011;25906;43.536;26.068;2023-06-14T02:31:23;7.40;;;6.18;;
40198;SDS011;25906;43.536;26.068;2023-06-14T02:34:09;7.32;;;4.95;;
40198;SDS011;25906;43.536;26.068;2023-06-14T02:36:55;7.13;;;5.32;;
40198;SDS011;25906;43.536;26.068;2023-06-14T02:39:40;6.38;;;5.18;;
40198;SDS011;25906;43.536;26.068;2023-06-14T02:42:26;9.13;;;5.40;;
40198;SDS011;25906;43.536;26.068;2023-06-14T02:45:11;7.65;;;5.88;;
40198;SDS011;25906;43.536;26.068;2023-06-14T02:47:57;8.20;;;5.63;;
40198;SDS011;25906;43.536;26.068;2023-06-14T02:50:42;7.72;;;5.60;;
40198;SDS011;25906;43.536;26.068;2023-06-14T02:53:28;8.57;;;6.07;;
40198;SDS011;25906;43.536;26.068;2023-06-14T02:56:13;7.05;;;5.75;;
40198;SDS011;25906;43.536;26.068;2023-06-14T02:58:59;11.40;;;6.35;;
40198;SDS011;25906;43.536;26.068;2023-06-14T03:01:45;11.95;;;6.20;;
40198;SDS011;25906;43.536;26.068;2023-06-14T03:04:31;14.70;;;6.65;;
40198;SDS011;25906;43.536;26.068;2023-06-14T03:07:22;14.10;;;6.18;;
40198;SDS011;25906;43.536;26.068;2023-06-14T03:10:08;8.80;;;6.32;;
40198;SDS011;25906;43.536;26.068;2023-06-14T03:12:54;9.35;;;5.88;;
40198;SDS011;25906;43.536;26.068;2023-06-14T03:15:40;7.43;;;5.47;;
40198;SDS011;25906;43.536;26.068;2023-06-14T03:18:26;7.90;;;5.70;;
40198;SDS011;25906;43.536;26.068;2023-06-14T03:21:12;8.05;;;6.63;;
40198;SDS011;25906;43.536;26.068;2023-06-14T03:23:57;12.13;;;6.30;;
40198;SDS011;25906;43.536;26.068;2023-06-14T03:26:43;9.77;;;5.75;;
40198;SDS011;25906;43.536;26.068;2023-06-14T03:29:28;9.98;;;6.50;;
40198;SDS011;25906;43.536;26.068;2023-06-14T03:32:14;11.05;;;6.00;;
40198;SDS011;25906;43.536;26.068;2023-06-14T03:34:59;10.23;;;5.60;;
40198;SDS011;25906;43.536;26.068;2023-06-14T03:37:45;7.88;;;4.90;;
40198;SDS011;25906;43.536;26.068;2023-06-14T03:40:31;6.03;;;4.90;;
40198;SDS011;25906;43.536;26.068;2023-06-14T03:43:16;7.40;;;5.38;;
40198;SDS011;25906;43.536;26.068;2023-06-14T03:46:02;7.47;;;5.40;;
40198;SDS011;25906;43.536;26.068;2023-06-14T03:48:47;5.97;;;4.70;;
40198;SDS011;25906;43.536;26.068;2023-06-14T03:51:33;8.73;;;5.50;;
40198;SDS011;25906;43.536;26.068;2023-06-14T03:54:20;5.78;;;4.32;;
40198;SDS011;25906;43.536;26.068;2023-06-14T03:57:06;7.90;;;4.75;;
40198;SDS011;25906;43.536;26.068;2023-06-14T03:59:52;9.02;;;4.75;;
40198;SDS011;25906;43.536;26.068;2023-06-14T04:02:37;6.80;;;4.82;;
40198;SDS011;25906;43.536;26.068;2023-06-14T04:05:24;7.55;;;4.63;;
40198;SDS011;25906;43.536;26.068;2023-06-14T04:08:11;6.95;;;5.43;;
40198;SDS011;25906;43.536;26.068;2023-06-14T04:10:59;20.48;;;5.80;;
40198;SDS011;25906;43.536;26.068;2023-06-14T04:13:45;8.60;;;5.28;;
40198;SDS011;25906;43.536;26.068;2023-06-14T04:16:30;12.00;;;5.68;;
40198;SDS011;25906;43.536;26.068;2023-06-14T04:19:16;7.80;;;5.65;;
40198;SDS011;25906;43.536;26.068;2023-06-14T04:22:02;8.82;;;5.70;;
40198;SDS011;25906;43.536;26.068;2023-06-14T04:24:47;6.75;;;5.80;;
40198;SDS011;25906;43.536;26.068;2023-06-14T04:27:34;9.60;;;6.15;;
40198;SDS011;25906;43.536;26.068;2023-06-14T04:30:21;9.43;;;5.63;;
40198;SDS011;25906;43.536;26.068;2023-06-14T04:33:12;10.45;;;5.57;;
40198;SDS011;25906;43.536;26.068;2023-06-14T04:35:57;6.72;;;5.57;;
40198;SDS011;25906;43.536;26.068;2023-06-14T04:38:44;8.52;;;5.90;;
40198;SDS011;25906;43.536;26.068;2023-06-14T04:41:31;6.65;;;5.72;;
40198;SDS011;25906;43.536;26.068;2023-06-14T04:44:16;10.13;;;5.43;;
40198;SDS011;25906;43.536;26.068;2023-06-14T04:47:03;9.73;;;5.68;;
40198;SDS011;25906;43.536;26.068;2023-06-14T04:52:35;7.38;;;5.07;;
40198;SDS011;25906;43.536;26.068;2023-06-14T04:55:22;7.22;;;5.85;;
40198;SDS011;25906;43.536;26.068;2023-06-14T04:58:07;9.20;;;5.47;;
40198;SDS011;25906;43.536;26.068;2023-06-14T05:00:53;9.60;;;6.03;;
40198;SDS011;25906;43.536;26.068;2023-06-14T05:03:38;8.80;;;5.53;;
40198;SDS011;25906;43.536;26.068;2023-06-14T05:06:24;11.48;;;5.93;;
40198;SDS011;25906;43.536;26.068;2023-06-14T05:09:13;8.15;;;5.60;;
40198;SDS011;25906;43.536;26.068;2023-06-14T05:12:00;6.22;;;5.28;;
40198;SDS011;25906;43.536;26.068;2023-06-14T05:14:45;10.10;;;6.00;;
40198;SDS011;25906;43.536;26.068;2023-06-14T05:17:31;7.38;;;5.88;;
40198;SDS011;25906;43.536;26.068;2023-06-14T05:20:16;6.57;;;5.00;;
40198;SDS011;25906;43.536;26.068;2023-06-14T05:23:02;7.05;;;5.65;;
40198;SDS011;25906;43.536;26.068;2023-06-14T05:28:33;6.45;;;4.88;;
40198;SDS011;25906;43.536;26.068;2023-06-14T05:31:18;8.63;;;5.68;;
40198;SDS011;25906;43.536;26.068;2023-06-14T05:34:04;6.47;;;4.65;;
40198;SDS011;25906;43.536;26.068;2023-06-14T05:36:49;6.93;;;4.82;;
40198;SDS011;25906;43.536;26.068;2023-06-14T05:39:35;8.57;;;4.85;;
40198;SDS011;25906;43.536;26.068;2023-06-14T05:42:20;5.35;;;4.43;;
40198;SDS011;25906;43.536;26.068;2023-06-14T05:45:06;4.95;;;4.20;;
40198;SDS011;25906;43.536;26.068;2023-06-14T05:47:52;10.20;;;4.28;;
40198;SDS011;25906;43.536;26.068;2023-06-14T05:50:39;5.53;;;4.20;;
40198;SDS011;25906;43.536;26.068;2023-06-14T05:53:25;4.55;;;3.88;;
40198;SDS011;25906;43.536;26.068;2023-06-14T05:56:10;9.10;;;4.13;;
40198;SDS011;25906;43.536;26.068;2023-06-14T05:58:56;8.18;;;3.97;;
40198;SDS011;25906;43.536;26.068;2023-06-14T06:01:42;7.43;;;3.50;;
40198;SDS011;25906;43.536;26.068;2023-06-14T06:04:27;4.57;;;3.47;;
40198;SDS011;25906;43.536;26.068;2023-06-14T06:07:12;11.27;;;3.53;;
40198;SDS011;25906;43.536;26.068;2023-06-14T06:09:58;6.30;;;3.67;;
40198;SDS011;25906;43.536;26.068;2023-06-14T06:12:44;4.80;;;3.63;;
40198;SDS011;25906;43.536;26.068;2023-06-14T06:15:32;6.85;;;3.65;;
40198;SDS011;25906;43.536;26.068;2023-06-14T06:18:18;6.05;;;3.65;;
40198;SDS011;25906;43.536;26.068;2023-06-14T06:21:03;9.43;;;3.85;;
40198;SDS011;25906;43.536;26.068;2023-06-14T06:23:49;5.53;;;4.00;;
40198;SDS011;25906;43.536;26.068;2023-06-14T06:26:35;4.32;;;3.60;;
40198;SDS011;25906;43.536;26.068;2023-06-14T06:29:20;4.90;;;3.65;;
40198;SDS011;25906;43.536;26.068;2023-06-14T06:32:06;7.22;;;4.07;;
40198;SDS011;25906;43.536;26.068;2023-06-14T06:34:52;6.88;;;4.45;;
40198;SDS011;25906;43.536;26.068;2023-06-14T06:37:38;4.50;;;3.70;;
40198;SDS011;25906;43.536;26.068;2023-06-14T06:40:24;7.05;;;3.80;;
40198;SDS011;25906;43.536;26.068;2023-06-14T06:43:10;4.50;;;3.50;;
40198;SDS011;25906;43.536;26.068;2023-06-14T06:45:58;4.63;;;3.35;;
40198;SDS011;25906;43.536;26.068;2023-06-14T06:48:44;5.28;;;3.50;;
40198;SDS011;25906;43.536;26.068;2023-06-14T06:51:29;7.53;;;3.40;;
40198;SDS011;25906;43.536;26.068;2023-06-14T06:54:15;6.13;;;2.90;;
40198;SDS011;25906;43.536;26.068;2023-06-14T06:57:00;6.25;;;2.92;;
40198;SDS011;25906;43.536;26.068;2023-06-14T06:59:49;5.50;;;3.22;;
40198;SDS011;25906;43.536;26.068;2023-06-14T07:02:35;6.50;;;3.33;;
40198;SDS011;25906;43.536;26.068;2023-06-14T07:05:21;3.05;;;2.75;;
40198;SDS011;25906;43.536;26.068;2023-06-14T07:08:07;4.60;;;2.85;;
40198;SDS011;25906;43.536;26.068;2023-06-14T07:10:53;3.95;;;3.38;;
40198;SDS011;25906;43.536;26.068;2023-06-14T07:13:38;3.58;;;2.60;;
40198;SDS011;25906;43.536;26.068;2023-06-14T07:16:23;4.60;;;2.90;;
40198;SDS011;25906;43.536;26.068;2023-06-14T07:19:09;4.60;;;3.13;;
40198;SDS011;25906;43.536;26.068;2023-06-14T07:21:55;5.53;;;3.15;;
40198;SDS011;25906;43.536;26.068;2023-06-14T07:24:40;3.65;;;3.33;;
40198;SDS011;25906;43.536;26.068;2023-06-14T07:27:27;3.50;;;2.60;;
40198;SDS011;25906;43.536;26.068;2023-06-14T07:32:58;4.90;;;2.58;;
40198;SDS011;25906;43.536;26.068;2023-06-14T07:35:43;3.40;;;2.40;;
40198;SDS011;25906;43.536;26.068;2023-06-14T07:38:29;7.30;;;2.83;;
40198;SDS011;25906;43.536;26.068;2023-06-14T07:41:15;5.95;;;2.90;;
40198;SDS011;25906;43.536;26.068;2023-06-14T07:44:01;6.53;;;2.70;;
40198;SDS011;25906;43.536;26.068;2023-06-14T07:46:49;5.00;;;2.67;;
40198;SDS011;25906;43.536;26.068;2023-06-14T07:52:20;3.13;;;2.60;;
40198;SDS011;25906;43.536;26.068;2023-06-14T07:55:07;6.63;;;2.90;;
40198;SDS011;25906;43.536;26.068;2023-06-14T07:57:52;5.57;;;3.05;;
40198;SDS011;25906;43.536;26.068;2023-06-14T08:00:38;3.10;;;2.75;;
40198;SDS011;25906;43.536;26.068;2023-06-14T08:06:10;3.53;;;3.10;;
40198;SDS011;25906;43.536;26.068;2023-06-14T08:08:55;4.43;;;2.60;;
40198;SDS011;25906;43.536;26.068;2023-06-14T08:14:26;4.38;;;2.40;;
40198;SDS011;25906;43.536;26.068;2023-06-14T08:17:12;5.85;;;3.38;;
40198;SDS011;25906;43.536;26.068;2023-06-14T08:19:57;5.47;;;3.20;;
40198;SDS011;25906;43.536;26.068;2023-06-14T08:22:43;4.13;;;2.78;;
40198;SDS011;25906;43.536;26.068;2023-06-14T08:25:31;4.95;;;3.22;;
40198;SDS011;25906;43.536;26.068;2023-06-14T08:31:02;6.80;;;3.40;;
40198;SDS011;25906;43.536;26.068;2023-06-14T08:36:33;5.93;;;2.55;;
40198;SDS011;25906;43.536;26.068;2023-06-14T08:39:20;5.45;;;2.72;;
40198;SDS011;25906;43.536;26.068;2023-06-14T08:42:07;6.93;;;2.50;;
40198;SDS011;25906;43.536;26.068;2023-06-14T08:44:55;2.78;;;2.58;;
40198;SDS011;25906;43.536;26.068;2023-06-14T08:47:41;4.45;;;2.70;;
40198;SDS011;25906;43.536;26.068;2023-06-14T08:50:27;5.25;;;2.70;;
40198;SDS011;25906;43.536;26.068;2023-06-14T08:53:16;5.72;;;2.90;;
40198;SDS011;25906;43.536;26.068;2023-06-14T08:56:05;4.97;;;2.72;;
40198;SDS011;25906;43.536;26.068;2023-06-14T08:58:50;2.95;;;2.25;;
40198;SDS011;25906;43.536;26.068;2023-06-14T09:04:22;2.50;;;2.30;;
40198;SDS011;25906;43.536;26.068;2023-06-14T09:07:09;4.53;;;3.03;;
40198;SDS011;25906;43.536;26.068;2023-06-14T09:10:05;7.30;;;2.70;;
40198;SDS011;25906;43.536;26.068;2023-06-14T09:12:53;2.88;;;2.58;;
40198;SDS011;25906;43.536;26.068;2023-06-14T09:15:40;5.88;;;2.60;;
40198;SDS011;25906;43.536;26.068;2023-06-14T09:18:44;3.10;;;2.75;;
40198;SDS011;25906;43.536;26.068;2023-06-14T09:21:35;4.40;;;2.60;;
40198;SDS011;25906;43.536;26.068;2023-06-14T09:24:24;5.13;;;2.67;;
40198;SDS011;25906;43.536;26.068;2023-06-14T09:27:14;5.40;;;3.20;;
40198;SDS011;25906;43.536;26.068;2023-06-14T09:30:01;7.20;;;3.05;;
40198;SDS011;25906;43.536;26.068;2023-06-14T09:32:54;3.00;;;2.63;;
40198;SDS011;25906;43.536;26.068;2023-06-14T09:35:40;5.18;;;3.13;;
40198;SDS011;25906;43.536;26.068;2023-06-14T09:41:11;3.78;;;3.00;;
40198;SDS011;25906;43.536;26.068;2023-06-14T09:43:57;3.90;;;2.60;;
40198;SDS011;25906;43.536;26.068;2023-06-14T09:46:45;2.83;;;2.53;;
40198;SDS011;25906;43.536;26.068;2023-06-14T09:49:32;3.83;;;3.20;;
40198;SDS011;25906;43.536;26.068;2023-06-14T09:55:05;5.43;;;2.90;;
40198;SDS011;25906;43.536;26.068;2023-06-14T09:57:57;3.22;;;2.70;;
40198;SDS011;25906;43.536;26.068;2023-06-14T10:00:44;9.77;;;2.80;;
40198;SDS011;25906;43.536;26.068;2023-06-14T10:03:31;3.63;;;2.92;;
40198;SDS011;25906;43.536;26.068;2023-06-14T10:06:17;3.88;;;2.40;;
40198;SDS011;25906;43.536;26.068;2023-06-14T10:11:49;4.95;;;2.92;;
40198;SDS011;25906;43.536;26.068;2023-06-14T10:14:35;6.50;;;2.60;;
40198;SDS011;25906;43.536;26.068;2023-06-14T10:23:33;4.68;;;2.55;;
40198;SDS011;25906;43.536;26.068;2023-06-14T10:26:23;6.20;;;2.70;;
40198;SDS011;25906;43.536;26.068;2023-06-14T10:29:09;2.78;;;2.45;;
40198;SDS011;25906;43.536;26.068;2023-06-14T10:31:58;3.92;;;2.85;;
40198;SDS011;25906;43.536;26.068;2023-06-14T10:34:45;4.72;;;2.90;;
40198;SDS011;25906;43.536;26.068;2023-06-14T10:37:30;4.10;;;2.97;;
40198;SDS011;25906;43.536;26.068;2023-06-14T10:40:29;3.88;;;2.42;;
40198;SDS011;25906;43.536;26.068;2023-06-14T10:43:22;3.40;;;2.50;;
40198;SDS011;25906;43.536;26.068;2023-06-14T10:49:01;2.80;;;2.42;;
40198;SDS011;25906;43.536;26.068;2023-06-14T10:51:51;3.38;;;2.60;;
40198;SDS011;25906;43.536;26.068;2023-06-14T10:54:38;2.70;;;2.50;;
40198;SDS011;25906;43.536;26.068;2023-06-14T10:57:23;5.53;;;2.55;;
40198;SDS011;25906;43.536;26.068;2023-06-14T11:00:09;3.15;;;2.72;;
40198;SDS011;25906;43.536;26.068;2023-06-14T11:05:53;2.80;;;2.60;;
40198;SDS011;25906;43.536;26.068;2023-06-14T11:12:04;4.38;;;2.80;;
40198;SDS011;25906;43.536;26.068;2023-06-14T11:14:52;5.93;;;2.47;;
40198;SDS011;25906;43.536;26.068;2023-06-14T11:20:26;10.25;;;2.95;;
40198;SDS011;25906;43.536;26.068;2023-06-14T11:23:12;4.32;;;3.20;;
40198;SDS011;25906;43.536;26.068;2023-06-14T11:25:58;4.20;;;2.88;;
40198;SDS011;25906;43.536;26.068;2023-06-14T11:28:43;7.43;;;2.60;;
40198;SDS011;25906;43.536;26.068;2023-06-14T11:31:29;6.25;;;2.85;;
40198;SDS011;25906;43.536;26.068;2023-06-14T11:34:15;4.93;;;2.90;;
40198;SDS011;25906;43.536;26.068;2023-06-14T11:37:01;5.18;;;2.67;;
40198;SDS011;25906;43.536;26.068;2023-06-14T11:39:47;7.60;;;2.97;;
40198;SDS011;25906;43.536;26.068;2023-06-14T11:42:32;3.78;;;2.72;;
40198;SDS011;25906;43.536;26.068;2023-06-14T11:45:18;3.55;;;3.05;;
40198;SDS011;25906;43.536;26.068;2023-06-14T11:48:03;3.53;;;3.00;;
40198;SDS011;25906;43.536;26.068;2023-06-14T11:53:34;4.43;;;2.90;;
40198;SDS011;25906;43.536;26.068;2023-06-14T11:59:06;6.88;;;3.00;;
40198;SDS011;25906;43.536;26.068;2023-06-14T12:01:55;3.10;;;2.78;;
40198;SDS011;25906;43.536;26.068;2023-06-14T12:04:40;9.93;;;3.13;;
40198;SDS011;25906;43.536;26.068;2023-06-14T12:07:26;4.05;;;2.78;;
40198;SDS011;25906;43.536;26.068;2023-06-14T12:10:14;3.38;;;2.92;;
40198;SDS011;25906;43.536;26.068;2023-06-14T12:15:53;3.22;;;2.78;;
40198;SDS011;25906;43.536;26.068;2023-06-14T12:18:40;6.07;;;3.00;;
40198;SDS011;25906;43.536;26.068;2023-06-14T12:21:26;8.25;;;3.40;;
40198;SDS011;25906;43.536;26.068;2023-06-14T12:24:13;3.58;;;2.80;;
40198;SDS011;25906;43.536;26.068;2023-06-14T12:29:45;4.35;;;3.22;;
40198;SDS011;25906;43.536;26.068;2023-06-14T12:32:30;3.22;;;2.88;;
40198;SDS011;25906;43.536;26.068;2023-06-14T12:35:15;5.53;;;3.22;;
40198;SDS011;25906;43.536;26.068;2023-06-14T12:38:01;4.40;;;2.97;;
40198;SDS011;25906;43.536;26.068;2023-06-14T12:40:48;5.38;;;2.78;;
40198;SDS011;25906;43.536;26.068;2023-06-14T12:46:19;6.15;;;2.90;;
40198;SDS011;25906;43.536;26.068;2023-06-14T12:49:07;7.15;;;3.15;;
40198;SDS011;25906;43.536;26.068;2023-06-14T12:51:53;3.72;;;2.72;;
40198;SDS011;25906;43.536;26.068;2023-06-14T12:57:24;3.72;;;2.75;;
40198;SDS011;25906;43.536;26.068;2023-06-14T13:00:10;4.30;;;2.83;;
40198;SDS011;25906;43.536;26.068;2023-06-14T13:02:57;7.40;;;3.05;;
40198;SDS011;25906;43.536;26.068;2023-06-14T13:05:43;5.10;;;3.20;;
40198;SDS011;25906;43.536;26.068;2023-06-14T13:11:15;7.32;;;2.90;;
40198;SDS011;25906;43.536;26.068;2023-06-14T13:14:01;3.50;;;3.20;;
40198;SDS011;25906;43.536;26.068;2023-06-14T13:16:46;4.75;;;3.22;;
40198;SDS011;25906;43.536;26.068;2023-06-14T13:19:32;3.42;;;2.85;;
40198;SDS011;25906;43.536;26.068;2023-06-14T13:25:03;3.92;;;3.42;;
40198;SDS011;25906;43.536;26.068;2023-06-14T13:27:49;5.43;;;3.30;;
40198;SDS011;25906;43.536;26.068;2023-06-14T13:30:34;4.85;;;3.00;;
40198;SDS011;25906;43.536;26.068;2023-06-14T13:36:05;3.58;;;3.25;;
40198;SDS011;25906;43.536;26.068;2023-06-14T13:38:51;4.50;;;2.80;;
40198;SDS011;25906;43.536;26.068;2023-06-14T13:41:38;6.63;;;2.70;;
40198;SDS011;25906;43.536;26.068;2023-06-14T13:44:23;5.30;;;3.08;;
40198;SDS011;25906;43.536;26.068;2023-06-14T13:47:10;3.42;;;2.70;;
40198;SDS011;25906;43.536;26.068;2023-06-14T13:49:55;7.47;;;3.20;;
40198;SDS011;25906;43.536;26.068;2023-06-14T13:52:41;4.15;;;2.83;;
40198;SDS011;25906;43.536;26.068;2023-06-14T13:55:27;3.33;;;2.70;;
40198;SDS011;25906;43.536;26.068;2023-06-14T13:58:12;3.70;;;2.58;;
40198;SDS011;25906;43.536;26.068;2023-06-14T14:00:59;3.95;;;3.50;;
40198;SDS011;25906;43.536;26.068;2023-06-14T14:03:49;6.15;;;3.20;;
40198;SDS011;25906;43.536;26.068;2023-06-14T14:06:34;4.43;;;3.03;;
40198;SDS011;25906;43.536;26.068;2023-06-14T14:09:20;7.30;;;2.85;;
40198;SDS011;25906;43.536;26.068;2023-06-14T14:12:05;3.28;;;2.63;;
40198;SDS011;25906;43.536;26.068;2023-06-14T14:14:51;4.55;;;2.85;;
40198;SDS011;25906;43.536;26.068;2023-06-14T14:20:22;6.15;;;3.15;;
40198;SDS011;25906;43.536;26.068;2023-06-14T14:25:53;4.93;;;2.95;;
40198;SDS011;25906;43.536;26.068;2023-06-14T14:28:39;6.13;;;2.60;;
40198;SDS011;25906;43.536;26.068;2023-06-14T14:31:25;5.70;;;2.80;;
40198;SDS011;25906;43.536;26.068;2023-06-14T14:36:56;9.05;;;3.08;;
40198;SDS011;25906;43.536;26.068;2023-06-14T14:39:41;2.80;;;2.60;;
40198;SDS011;25906;43.536;26.068;2023-06-14T14:42:27;5.25;;;2.72;;
40198;SDS011;25906;43.536;26.068;2023-06-14T14:45:13;5.25;;;2.88;;
40198;SDS011;25906;43.536;26.068;2023-06-14T14:48:00;3.05;;;2.60;;
40198;SDS011;25906;43.536;26.068;2023-06-14T14:50:45;3.88;;;2.47;;
40198;SDS011;25906;43.536;26.068;2023-06-14T14:53:31;7.00;;;2.63;;
40198;SDS011;25906;43.536;26.068;2023-06-14T14:56:16;5.57;;;2.90;;
40198;SDS011;25906;43.536;26.068;2023-06-14T14:59:02;3.95;;;2.85;;
40198;SDS011;25906;43.536;26.068;2023-06-14T15:01:48;4.03;;;2.88;;
40198;SDS011;25906;43.536;26.068;2023-06-14T15:04:33;5.60;;;2.78;;
40198;SDS011;25906;43.536;26.068;2023-06-14T15:10:05;3.70;;;2.70;;
40198;SDS011;25906;43.536;26.068;2023-06-14T15:12:51;3.83;;;2.80;;
40198;SDS011;25906;43.536;26.068;2023-06-14T15:15:37;4.55;;;2.75;;
40198;SDS011;25906;43.536;26.068;2023-06-14T15:18:22;5.00;;;2.55;;
40198;SDS011;25906;43.536;26.068;2023-06-14T15:21:07;5.82;;;3.00;;
40198;SDS011;25906;43.536;26.068;2023-06-14T15:26:38;4.65;;;3.03;;
40198;SDS011;25906;43.536;26.068;2023-06-14T15:29:24;3.58;;;2.80;;
40198;SDS011;25906;43.536;26.068;2023-06-14T15:32:10;6.05;;;2.80;;
40198;SDS011;25906;43.536;26.068;2023-06-14T15:34:56;3.25;;;2.90;;
40198;SDS011;25906;43.536;26.068;2023-06-14T15:37:41;3.90;;;2.70;;
40198;SDS011;25906;43.536;26.068;2023-06-14T15:40:26;3.47;;;2.85;;
40198;SDS011;25906;43.536;26.068;2023-06-14T15:43:13;3.60;;;2.60;;
40198;SDS011;25906;43.536;26.068;2023-06-14T15:45:58;9.85;;;2.92;;
40198;SDS011;25906;43.536;26.068;2023-06-14T15:48:43;4.00;;;2.72;;
40198;SDS011;25906;43.536;26.068;2023-06-14T15:51:29;4.22;;;2.75;;
40198;SDS011;25906;43.536;26.068;2023-06-14T15:54:14;3.08;;;2.72;;
40198;SDS011;25906;43.536;26.068;2023-06-14T15:57:00;4.18;;;2.65;;
40198;SDS011;25906;43.536;26.068;2023-06-14T15:59:45;7.28;;;2.85;;
40198;SDS011;25906;43.536;26.068;2023-06-14T16:02:31;3.00;;;2.30;;
40198;SDS011;25906;43.536;26.068;2023-06-14T16:05:16;6.35;;;2.25;;
40198;SDS011;25906;43.536;26.068;2023-06-14T16:10:47;5.07;;;2.75;;
40198;SDS011;25906;43.536;26.068;2023-06-14T16:13:33;3.08;;;2.65;;
40198;SDS011;25906;43.536;26.068;2023-06-14T16:16:18;5.53;;;2.60;;
40198;SDS011;25906;43.536;26.068;2023-06-14T16:19:05;2.83;;;2.30;;
40198;SDS011;25906;43.536;26.068;2023-06-14T16:24:36;4.80;;;3.00;;
40198;SDS011;25906;43.536;26.068;2023-06-14T16:27:22;4.30;;;2.83;;
40198;SDS011;25906;43.536;26.068;2023-06-14T16:30:07;4.65;;;2.95;;
40198;SDS011;25906;43.536;26.068;2023-06-14T16:32:53;5.20;;;2.92;;
40198;SDS011;25906;43.536;26.068;2023-06-14T16:38:24;6.32;;;3.20;;
40198;SDS011;25906;43.536;26.068;2023-06-14T16:41:10;9.07;;;3.67;;
40198;SDS011;25906;43.536;26.068;2023-06-14T16:43:55;10.55;;;4.75;;
40198;SDS011;25906;43.536;26.068;2023-06-14T16:46:40;12.05;;;5.60;;
40198;SDS011;25906;43.536;26.068;2023-06-14T16:49:26;9.48;;;5.70;;
40198;SDS011;25906;43.536;26.068;2023-06-14T16:52:11;4.18;;;3.30;;
40198;SDS011;25906;43.536;26.068;2023-06-14T16:54:57;9.27;;;3.80;;
40198;SDS011;25906;43.536;26.068;2023-06-14T16:57:42;5.28;;;3.05;;
40198;SDS011;25906;43.536;26.068;2023-06-14T17:00:28;8.68;;;3.15;;
40198;SDS011;25906;43.536;26.068;2023-06-14T17:03:13;7.28;;;3.35;;
40198;SDS011;25906;43.536;26.068;2023-06-14T17:05:59;12.63;;;3.20;;
40198;SDS011;25906;43.536;26.068;2023-06-14T17:08:44;3.20;;;2.90;;
40198;SDS011;25906;43.536;26.068;2023-06-14T17:11:30;2.72;;;2.50;;
40198;SDS011;25906;43.536;26.068;2023-06-14T17:14:15;3.88;;;3.10;;
40198;SDS011;25906;43.536;26.068;2023-06-14T17:17:01;8.45;;;3.35;;
40198;SDS011;25906;43.536;26.068;2023-06-14T17:19:46;4.45;;;2.88;;
40198;SDS011;25906;43.536;26.068;2023-06-14T17:22:31;3.40;;;3.10;;
40198;SDS011;25906;43.536;26.068;2023-06-14T17:25:17;4.65;;;2.88;;
40198;SDS011;25906;43.536;26.068;2023-06-14T17:28:02;5.72;;;3.40;;
40198;SDS011;25906;43.536;26.068;2023-06-14T17:30:50;4.13;;;3.05;;
40198;SDS011;25906;43.536;26.068;2023-06-14T17:36:21;4.90;;;3.38;;
40198;SDS011;25906;43.536;26.068;2023-06-14T17:39:07;4.22;;;3.70;;
40198;SDS011;25906;43.536;26.068;2023-06-14T17:41:53;5.22;;;3.50;;
40198;SDS011;25906;43.536;26.068;2023-06-14T17:44:39;4.45;;;3.50;;
40198;SDS011;25906;43.536;26.068;2023-06-14T17:47:24;5.85;;;3.00;;
40198;SDS011;25906;43.536;26.068;2023-06-14T17:52:55;3.17;;;2.88;;
40198;SDS011;25906;43.536;26.068;2023-06-14T17:55:41;3.78;;;3.08;;
40198;SDS011;25906;43.536;26.068;2023-06-14T17:58:26;3.50;;;2.88;;
40198;SDS011;25906;43.536;26.068;2023-06-14T18:01:12;4.90;;;3.00;;
40198;SDS011;25906;43.536;26.068;2023-06-14T18:04:00;10.77;;;3.10;;
40198;SDS011;25906;43.536;26.068;2023-06-14T18:06:45;5.47;;;2.90;;
40198;SDS011;25906;43.536;26.068;2023-06-14T18:09:30;5.70;;;3.28;;
40198;SDS011;25906;43.536;26.068;2023-06-14T18:12:16;3.22;;;2.92;;
40198;SDS011;25906;43.536;26.068;2023-06-14T18:15:01;4.60;;;3.72;;
40198;SDS011;25906;43.536;26.068;2023-06-14T18:20:35;6.85;;;3.15;;
40198;SDS011;25906;43.536;26.068;2023-06-14T18:23:20;5.05;;;3.20;;
40198;SDS011;25906;43.536;26.068;2023-06-14T18:26:06;4.13;;;3.47;;
40198;SDS011;25906;43.536;26.068;2023-06-14T18:28:51;7.07;;;3.75;;